createdAt,value
2022-08-16T00:04:59.744Z,19.53
2022-08-16T00:10:02.199Z,19.43
2022-08-16T00:15:11.594Z,19.33
2022-08-16T00:20:14.362Z,19.21
2022-08-16T00:25:18.672Z,19.25
2022-08-16T00:30:28.791Z,19.37
2022-08-16T00:35:34.815Z,19.36
2022-08-16T00:40:43.567Z,19.46
2022-08-16T00:46:33.262Z,19.60
2022-08-16T00:51:29.550Z,19.61
2022-08-16T00:56:58.075Z,19.77
2022-08-16T01:01:56.096Z,20.00
2022-08-16T01:07:02.303Z,20.10
2022-08-16T01:12:08.604Z,20.19
2022-08-16T01:17:14.976Z,20.23
2022-08-16T01:22:47.536Z,20.26
2022-08-16T01:27:57.467Z,20.33
2022-08-16T01:33:14.737Z,20.24
2022-08-16T01:38:30.826Z,20.10
2022-08-16T01:43:35.407Z,20.02
2022-08-16T01:48:37.659Z,19.95
2022-08-16T01:53:41.962Z,19.85
2022-08-16T01:59:03.992Z,19.91
2022-08-16T02:04:10.927Z,19.99
2022-08-16T02:09:14.565Z,19.96
2022-08-16T02:14:21.592Z,19.89
2022-08-16T02:19:59.114Z,19.93
2022-08-16T02:24:50.189Z,19.92
2022-08-16T02:30:05.049Z,19.92
2022-08-16T02:35:09.218Z,19.76
2022-08-16T02:40:16.367Z,19.58
2022-08-16T02:45:20.876Z,19.46
2022-08-16T02:50:53.976Z,19.22
2022-08-16T02:55:50.535Z,19.00
2022-08-16T03:00:55.953Z,19.03
2022-08-16T03:06:00.184Z,19.19
2022-08-16T03:11:02.012Z,19.22
2022-08-16T03:16:04.819Z,19.28
2022-08-16T03:21:06.520Z,19.29
2022-08-16T03:26:12.838Z,19.30
2022-08-16T03:31:15.551Z,19.21
2022-08-16T03:36:31.013Z,19.21
2022-08-16T03:41:50.388Z,18.98
2022-08-16T03:46:54.440Z,18.94
2022-08-16T03:52:06.798Z,18.99
2022-08-16T03:57:11.314Z,19.11
2022-08-16T04:02:22.567Z,19.07
2022-08-16T04:07:34.661Z,18.85
2022-08-16T04:12:53.904Z,18.75
2022-08-16T04:17:58.981Z,18.62
2022-08-16T04:23:01.392Z,18.59
2022-08-16T04:28:51.899Z,18.78
2022-08-16T04:33:27.683Z,18.82
2022-08-16T04:38:32.971Z,18.62
2022-08-16T04:43:34.995Z,18.56
2022-08-16T04:48:37.710Z,18.65
2022-08-16T04:53:45.005Z,18.74
2022-08-16T04:58:47.368Z,18.76
2022-08-16T05:04:00.569Z,18.86
2022-08-16T05:09:05.233Z,19.04
2022-08-16T05:14:08.097Z,19.32
2022-08-16T05:19:16.349Z,19.67
2022-08-16T05:24:38.161Z,19.94
2022-08-16T05:30:00.809Z,20.32
2022-08-16T05:35:10.995Z,20.59
2022-08-16T05:40:16.461Z,20.88
2022-08-16T05:45:22.176Z,21.14
2022-08-16T05:50:33.810Z,21.38
2022-08-16T05:55:40.874Z,21.79
2022-08-16T06:00:43.354Z,22.00
2022-08-16T06:05:45.076Z,22.40
2022-08-16T06:11:09.725Z,22.27
2022-08-16T06:16:17.808Z,22.82
2022-08-16T06:21:23.721Z,23.33
2022-08-16T06:26:37.060Z,23.40
2022-08-16T06:31:46.836Z,24.16
2022-08-16T06:36:51.738Z,24.93
2022-08-16T06:42:02.230Z,25.07
2022-08-16T06:47:22.815Z,25.39
2022-08-16T06:52:58.539Z,25.64
2022-08-16T06:57:47.125Z,25.83
2022-08-16T07:02:51.718Z,26.38
2022-08-16T07:07:54.332Z,27.08
2022-08-16T07:13:04.345Z,27.72
2022-08-16T07:18:13.249Z,28.73
2022-08-16T07:23:21.147Z,27.74
2022-08-16T07:28:39.697Z,28.56
2022-08-16T07:33:52.629Z,28.49
2022-08-16T07:39:00.060Z,29.97
2022-08-16T07:44:16.339Z,30.47
2022-08-16T07:49:19.573Z,30.76
2022-08-16T07:54:32.227Z,29.39
2022-08-16T07:59:46.064Z,28.09
2022-08-16T08:04:50.218Z,29.16
2022-08-16T08:09:52.447Z,29.39
2022-08-16T08:14:54.930Z,29.28
2022-08-16T08:19:56.620Z,28.40
2022-08-16T08:24:59.767Z,28.85
2022-08-16T08:30:49.610Z,29.30
2022-08-16T08:35:29.842Z,30.13
2022-08-16T08:40:33.326Z,29.42
2022-08-16T08:45:52.876Z,30.34
2022-08-16T08:50:55.781Z,30.29
2022-08-16T08:56:00.354Z,30.27
2022-08-16T09:01:04.320Z,31.92
2022-08-16T09:06:07.791Z,32.20
2022-08-16T09:11:15.842Z,32.59
2022-08-16T09:17:01.695Z,33.21
2022-08-16T09:21:43.697Z,33.39
2022-08-16T09:26:47.080Z,32.02
2022-08-16T09:31:57.070Z,30.75
2022-08-16T09:37:00.344Z,31.36
2022-08-16T09:42:02.121Z,32.70
2022-08-16T09:47:03.967Z,32.49
2022-08-16T09:52:12.132Z,32.46
2022-08-16T09:57:13.687Z,33.12
2022-08-16T10:02:26.509Z,32.40
2022-08-16T10:07:44.778Z,34.04
2022-08-16T10:12:56.813Z,33.75
2022-08-16T10:18:01.683Z,32.49
2022-08-16T10:23:06.780Z,31.48
2022-08-16T10:28:27.942Z,31.32
2022-08-16T10:33:33.789Z,31.95
2022-08-16T10:38:38.374Z,34.31
2022-08-16T10:43:42.040Z,34.86
2022-08-16T10:48:47.046Z,35.82
2022-08-16T10:53:48.783Z,35.30
2022-08-16T10:58:52.890Z,35.23
2022-08-16T11:03:57.446Z,35.69
2022-08-16T11:14:21.012Z,36.58
2022-08-16T11:19:22.937Z,34.67
2022-08-16T11:24:39.896Z,35.15
2022-08-16T11:29:43.646Z,36.64
2022-08-16T11:35:11.002Z,38.08
2022-08-16T11:40:08.098Z,37.27
2022-08-16T11:45:11.075Z,36.36
2022-08-16T11:50:13.505Z,37.28
2022-08-16T11:55:15.138Z,38.34
2022-08-16T12:00:33.561Z,37.35
2022-08-16T12:05:40.472Z,37.04
2022-08-16T12:10:43.769Z,36.96
2022-08-16T12:15:47.502Z,37.19
2022-08-16T12:20:49.629Z,36.18
2022-08-16T12:25:51.334Z,32.98
2022-08-16T12:30:53.838Z,34.38
2022-08-16T12:35:55.401Z,35.03
2022-08-16T12:40:57.389Z,33.96
2022-08-16T12:45:59.170Z,32.79
2022-08-16T12:51:10.906Z,34.43
2022-08-16T12:56:25.386Z,35.92
2022-08-16T13:01:33.482Z,36.10
2022-08-16T13:06:36.006Z,36.68
2022-08-16T13:11:41.429Z,37.43
2022-08-16T13:16:51.030Z,37.25
2022-08-16T13:21:52.609Z,38.36
2022-08-16T13:26:54.254Z,37.86
2022-08-16T13:31:56.016Z,38.32
2022-08-16T13:36:57.811Z,37.98
2022-08-16T13:42:00.672Z,36.98
2022-08-16T13:47:02.523Z,37.20
2022-08-16T13:52:04.745Z,35.36
2022-08-16T13:57:11.663Z,34.77
2022-08-16T14:02:13.703Z,34.72
2022-08-16T14:07:19.952Z,36.52
2022-08-16T14:12:31.204Z,35.50
2022-08-16T14:18:01.819Z,35.06
2022-08-16T14:22:56.197Z,35.39
2022-08-16T14:27:57.747Z,35.02
2022-08-16T14:32:59.300Z,35.91
2022-08-16T14:38:02.162Z,36.19
2022-08-16T14:43:07.080Z,37.28
2022-08-16T14:48:09.185Z,36.62
2022-08-16T14:53:10.796Z,36.93
2022-08-16T14:58:18.724Z,35.86
2022-08-16T15:03:21.511Z,34.78
2022-08-16T15:08:36.285Z,34.94
2022-08-16T15:13:39.125Z,34.25
2022-08-16T15:18:40.693Z,33.75
2022-08-16T15:23:42.842Z,33.55
2022-08-16T15:28:46.007Z,33.64
2022-08-16T15:33:56.624Z,33.87
2022-08-16T15:39:06.859Z,33.68
2022-08-16T15:44:26.282Z,33.64
2022-08-16T15:49:37.142Z,33.89
2022-08-16T15:54:52.594Z,34.22
2022-08-16T16:00:04.058Z,34.32
2022-08-16T16:05:13.868Z,34.05
2022-08-16T16:10:15.444Z,34.13
2022-08-16T16:15:20.290Z,33.61
2022-08-16T16:20:27.924Z,33.26
2022-08-16T16:25:32.218Z,32.78
2022-08-16T16:30:44.579Z,32.93
2022-08-16T16:35:47.388Z,33.17
2022-08-16T16:40:58.618Z,33.33
2022-08-16T16:46:03.268Z,33.27
2022-08-16T16:51:28.140Z,33.15
2022-08-16T16:56:36.918Z,32.98
2022-08-16T17:01:57.512Z,32.87
2022-08-16T17:07:03.515Z,32.77
2022-08-16T17:12:05.799Z,32.88
2022-08-16T17:17:09.065Z,33.27
2022-08-16T17:22:14.526Z,33.13
2022-08-16T17:27:17.895Z,33.11
2022-08-16T17:32:33.914Z,33.25
2022-08-16T17:37:51.008Z,32.82
2022-08-16T17:42:54.693Z,32.31
2022-08-16T17:47:56.495Z,31.89
2022-08-16T17:52:58.207Z,31.58
2022-08-16T17:58:00.238Z,31.36
2022-08-16T18:03:01.780Z,31.12
2022-08-16T18:08:03.531Z,30.81
2022-08-16T18:13:05.109Z,30.50
2022-08-16T18:18:09.382Z,30.26
2022-08-16T18:23:15.193Z,30.07
2022-08-16T18:28:20.333Z,30.07
2022-08-16T18:33:24.152Z,29.84
2022-08-16T18:38:26.093Z,29.50
2022-08-16T18:44:22.587Z,29.12
2022-08-16T18:48:50.488Z,28.84
2022-08-16T18:53:52.217Z,28.98
2022-08-16T18:58:53.767Z,28.62
2022-08-16T19:03:55.332Z,28.22
2022-08-16T19:08:56.915Z,28.00
2022-08-16T19:13:58.608Z,27.88
2022-08-16T19:19:00.194Z,27.69
2022-08-16T19:24:01.980Z,27.57
2022-08-16T19:29:08.265Z,27.60
2022-08-16T19:34:10.315Z,27.58
2022-08-16T19:39:15.205Z,27.61
2022-08-16T19:44:17.061Z,27.57
2022-08-16T19:49:18.704Z,27.68
2022-08-16T19:54:20.390Z,27.42
2022-08-16T19:59:39.053Z,27.34
2022-08-16T20:04:42.363Z,27.45
2022-08-16T20:09:48.058Z,27.73
2022-08-16T20:14:52.066Z,27.78
2022-08-16T20:19:53.636Z,27.81
2022-08-16T20:24:55.629Z,27.81
2022-08-16T20:29:57.395Z,27.62
2022-08-16T20:34:58.998Z,27.50
2022-08-16T20:40:27.197Z,27.41
2022-08-16T20:45:22.182Z,27.24
2022-08-16T20:50:28.846Z,27.03
2022-08-16T20:55:33.316Z,26.94
2022-08-16T21:00:35.041Z,26.83
2022-08-16T21:05:37.156Z,26.76
2022-08-16T21:10:38.810Z,26.37
2022-08-16T21:15:40.347Z,25.92
2022-08-16T21:20:42.056Z,25.05
2022-08-16T21:25:57.695Z,24.70
2022-08-16T21:31:00.261Z,24.67
2022-08-16T21:36:01.821Z,24.65
2022-08-16T21:41:06.058Z,24.53
2022-08-16T21:46:08.623Z,24.44
2022-08-16T21:51:12.932Z,24.48
2022-08-16T21:56:16.788Z,24.59
2022-08-16T22:01:19.257Z,24.66
2022-08-16T22:06:20.837Z,24.67
2022-08-16T22:11:25.169Z,24.77
2022-08-16T22:16:29.109Z,24.66
2022-08-16T22:21:32.073Z,24.39
2022-08-16T22:26:39.583Z,24.09
2022-08-16T22:31:44.776Z,23.95
2022-08-16T22:36:47.470Z,24.00
2022-08-16T22:41:49.004Z,23.97
2022-08-16T22:46:50.610Z,23.92
2022-08-16T22:51:52.387Z,23.81
2022-08-16T22:56:54.053Z,23.72
2022-08-16T23:01:56.119Z,23.70
2022-08-16T23:06:57.866Z,23.56
2022-08-16T23:12:04.303Z,23.77
2022-08-16T23:17:06.001Z,23.72
2022-08-16T23:22:07.545Z,23.62
2022-08-16T23:27:09.289Z,23.39
2022-08-16T23:32:11.744Z,23.06
2022-08-16T23:37:13.303Z,23.05
2022-08-16T23:42:15.399Z,23.04
2022-08-16T23:47:37.037Z,22.94
2022-08-16T23:52:54.025Z,22.67
2022-08-16T23:57:57.229Z,22.67
